createdAt,value
2023-02-21T00:01:16.785Z,13.90
2023-02-21T00:04:37.546Z,11.57
2023-02-21T00:07:58.385Z,10.85
2023-02-21T00:11:19.090Z,12.23
2023-02-21T00:14:39.788Z,11.47
2023-02-21T00:18:00.603Z,9.95
2023-02-21T00:21:21.498Z,9.90
2023-02-21T00:24:42.349Z,11.27
2023-02-21T00:28:03.208Z,9.43
2023-02-21T00:31:25.081Z,9.70
2023-02-21T00:34:46.004Z,8.70
2023-02-21T00:38:10.944Z,9.82
2023-02-21T00:41:31.656Z,8.57
2023-02-21T00:44:52.379Z,8.95
2023-02-21T00:48:13.088Z,8.27
2023-02-21T00:51:34.686Z,9.40
2023-02-21T00:54:55.862Z,8.85
2023-02-21T00:58:16.739Z,7.57
2023-02-21T01:01:37.700Z,9.13
2023-02-21T01:04:58.641Z,7.80
2023-02-21T01:08:19.414Z,8.32
2023-02-21T01:11:40.878Z,6.22
2023-02-21T01:15:01.606Z,5.80
2023-02-21T01:18:22.211Z,7.15
2023-02-21T01:21:42.970Z,6.47
2023-02-21T01:25:03.756Z,6.60
2023-02-21T01:28:25.744Z,6.55
2023-02-21T01:31:46.893Z,6.77
2023-02-21T01:35:08.773Z,8.32
2023-02-21T01:38:29.519Z,4.63
2023-02-21T01:41:50.145Z,5.55
2023-02-21T01:45:40.040Z,6.07
2023-02-21T01:49:00.929Z,4.63
2023-02-21T01:52:23.323Z,4.05
2023-02-21T01:55:44.128Z,3.27
2023-02-21T01:59:08.945Z,5.32
2023-02-21T02:02:55.880Z,4.88
2023-02-21T02:06:18.976Z,3.07
2023-02-21T02:09:40.648Z,4.97
2023-02-21T02:13:07.393Z,3.15
2023-02-21T02:16:15.820Z,3.92
2023-02-21T02:19:27.119Z,3.10
2023-02-21T02:22:52.026Z,4.55
2023-02-21T02:26:19.030Z,3.53
2023-02-21T02:29:49.469Z,2.77
2023-02-21T02:33:08.352Z,5.03
2023-02-21T02:36:14.250Z,3.35
2023-02-21T02:39:44.868Z,3.33
2023-02-21T02:43:12.690Z,3.03
2023-02-21T02:46:22.588Z,3.35
2023-02-21T02:49:27.534Z,2.90
2023-02-21T02:52:29.724Z,2.72
2023-02-21T02:55:43.391Z,2.97
2023-02-21T02:58:59.254Z,4.22
2023-02-21T03:02:34.251Z,3.00
2023-02-21T03:06:08.622Z,2.85
2023-02-21T03:09:38.962Z,2.75
2023-02-21T03:13:06.618Z,3.07
2023-02-21T03:16:17.168Z,2.03
2023-02-21T03:19:27.893Z,2.15
2023-02-21T03:22:30.825Z,2.70
2023-02-21T03:25:33.684Z,2.72
2023-02-21T03:28:38.525Z,3.00
2023-02-21T03:31:50.021Z,2.13
2023-02-21T03:34:52.305Z,3.97
2023-02-21T03:37:57.784Z,3.75
2023-02-21T03:41:01.720Z,4.57
2023-02-21T03:44:05.029Z,2.63
2023-02-21T03:47:07.691Z,2.83
2023-02-21T03:50:10.507Z,2.72
2023-02-21T03:53:16.098Z,2.00
2023-02-21T03:56:41.851Z,2.67
2023-02-21T04:00:30.949Z,1.33
2023-02-21T04:03:51.842Z,3.40
2023-02-21T04:06:54.098Z,3.40
2023-02-21T04:09:56.538Z,2.67
2023-02-21T04:13:09.294Z,2.50
2023-02-21T04:16:16.656Z,2.77
2023-02-21T04:19:18.938Z,2.63
2023-02-21T04:22:22.398Z,1.95
2023-02-21T04:25:24.639Z,2.45
2023-02-21T04:28:32.978Z,1.75
2023-02-21T04:31:35.683Z,4.30
2023-02-21T04:34:43.020Z,2.35
2023-02-21T04:37:45.902Z,2.20
2023-02-21T04:40:48.822Z,2.45
2023-02-21T04:43:52.756Z,3.75
2023-02-21T04:46:55.045Z,3.57
2023-02-21T04:49:57.323Z,1.77
2023-02-21T04:52:59.442Z,1.63
2023-02-21T04:56:01.569Z,1.73
2023-02-21T04:59:03.964Z,3.13
2023-02-21T05:02:06.385Z,3.42
2023-02-21T05:05:08.895Z,2.47
2023-02-21T05:08:11.011Z,2.97
2023-02-21T05:11:13.681Z,3.05
2023-02-21T05:14:18.302Z,3.42
2023-02-21T05:17:20.542Z,2.80
2023-02-21T05:20:22.762Z,3.90
2023-02-21T05:23:38.486Z,3.22
2023-02-21T05:26:40.664Z,3.35
2023-02-21T05:29:46.650Z,2.50
2023-02-21T05:32:48.847Z,2.20
2023-02-21T05:35:52.284Z,3.78
2023-02-21T05:38:56.016Z,2.83
2023-02-21T05:41:58.268Z,5.43
2023-02-21T05:45:00.464Z,3.13
2023-02-21T05:48:02.828Z,3.57
2023-02-21T05:51:05.138Z,2.58
2023-02-21T05:54:08.813Z,3.15
2023-02-21T05:57:11.008Z,2.53
2023-02-21T06:00:20.352Z,2.25
2023-02-21T06:03:22.619Z,3.17
2023-02-21T06:06:24.872Z,2.35
2023-02-21T06:09:27.020Z,2.53
2023-02-21T06:12:29.313Z,4.57
2023-02-21T06:15:31.488Z,2.38
2023-02-21T06:18:33.829Z,2.83
2023-02-21T06:21:36.328Z,2.97
2023-02-21T06:24:38.713Z,2.05
2023-02-21T06:27:40.883Z,3.65
2023-02-21T06:30:43.159Z,4.20
2023-02-21T06:33:47.793Z,4.53
2023-02-21T06:36:54.044Z,3.38
2023-02-21T06:39:56.270Z,2.43
2023-02-21T06:42:58.558Z,2.25
2023-02-21T06:46:00.728Z,4.32
2023-02-21T06:49:03.209Z,5.30
2023-02-21T06:52:06.011Z,6.10
2023-02-21T06:55:11.237Z,3.20
2023-02-21T06:58:13.490Z,3.60
2023-02-21T07:01:16.093Z,3.17
2023-02-21T07:04:18.554Z,1.92
2023-02-21T07:07:21.267Z,1.73
2023-02-21T07:10:23.510Z,2.13
2023-02-21T07:13:27.256Z,5.35
2023-02-21T07:16:29.630Z,1.80
2023-02-21T07:19:31.803Z,1.97
2023-02-21T07:22:34.910Z,3.35
2023-02-21T07:25:37.725Z,2.67
2023-02-21T07:28:40.077Z,2.78
2023-02-21T07:31:44.939Z,4.95
2023-02-21T07:34:47.257Z,2.50
2023-02-21T07:37:49.415Z,2.88
2023-02-21T07:40:54.719Z,3.33
2023-02-21T07:43:56.872Z,3.60
2023-02-21T07:46:59.077Z,3.75
2023-02-21T07:50:01.326Z,3.30
2023-02-21T07:53:03.511Z,3.10
2023-02-21T07:56:07.056Z,2.88
2023-02-21T07:59:09.237Z,3.33
2023-02-21T08:02:12.512Z,2.90
2023-02-21T08:05:15.618Z,2.25
2023-02-21T08:08:17.880Z,2.22
2023-02-21T08:11:20.135Z,5.27
2023-02-21T08:14:22.354Z,2.58
2023-02-21T08:17:24.618Z,3.58
2023-02-21T08:20:27.786Z,2.53
2023-02-21T08:23:30.437Z,3.63
2023-02-21T08:26:33.026Z,6.47
2023-02-21T08:29:35.627Z,2.92
2023-02-21T08:32:38.239Z,2.50
2023-02-21T08:35:40.478Z,3.00
2023-02-21T08:38:42.732Z,1.67
2023-02-21T08:41:46.961Z,7.03
2023-02-21T08:44:51.380Z,2.63
2023-02-21T08:47:55.386Z,2.70
2023-02-21T08:50:59.169Z,4.07
2023-02-21T08:54:02.312Z,3.33
2023-02-21T08:57:04.483Z,4.20
2023-02-21T09:00:12.222Z,2.40
2023-02-21T09:03:15.449Z,3.08
2023-02-21T09:06:19.910Z,1.83
2023-02-21T09:09:22.697Z,3.35
2023-02-21T09:12:28.527Z,4.10
2023-02-21T09:15:31.834Z,4.03
2023-02-21T09:18:38.689Z,3.42
2023-02-21T09:21:46.264Z,2.10
2023-02-21T09:24:48.429Z,4.88
2023-02-21T09:27:53.269Z,3.70
2023-02-21T09:30:56.465Z,1.75
2023-02-21T09:33:58.705Z,2.20
2023-02-21T09:37:06.280Z,2.65
2023-02-21T09:40:23.676Z,3.35
2023-02-21T09:43:36.603Z,3.77
2023-02-21T09:46:47.053Z,3.05
2023-02-21T09:49:50.845Z,2.75
2023-02-21T09:52:54.098Z,1.90
2023-02-21T09:56:02.025Z,1.77
2023-02-21T09:59:09.249Z,2.83
2023-02-21T10:02:20.253Z,4.43
2023-02-21T10:05:47.391Z,4.05
2023-02-21T10:09:03.809Z,3.78
2023-02-21T10:12:29.159Z,5.35
2023-02-21T10:15:52.438Z,4.10
2023-02-21T10:19:00.197Z,2.30
2023-02-21T10:22:10.937Z,3.17
2023-02-21T10:25:31.489Z,2.23
2023-02-21T10:28:33.927Z,1.70
2023-02-21T10:31:39.024Z,3.78
2023-02-21T10:34:46.308Z,3.50
2023-02-21T10:37:54.585Z,2.65
2023-02-21T10:40:59.870Z,3.67
2023-02-21T10:44:09.712Z,3.95
2023-02-21T10:47:43.848Z,2.13
2023-02-21T10:50:51.899Z,5.97
2023-02-21T10:53:54.530Z,3.10
2023-02-21T10:57:00.653Z,2.47
2023-02-21T11:00:10.221Z,2.58
2023-02-21T11:03:22.024Z,2.75
2023-02-21T11:06:30.453Z,3.42
2023-02-21T11:09:48.761Z,1.98
2023-02-21T11:13:16.484Z,2.80
2023-02-21T11:16:20.392Z,2.78
2023-02-21T11:19:22.555Z,4.03
2023-02-21T11:22:42.902Z,4.60
2023-02-21T11:25:45.299Z,3.55
2023-02-21T11:28:48.204Z,2.80
2023-02-21T11:31:52.702Z,3.88
2023-02-21T11:35:02.987Z,3.00
2023-02-21T11:38:09.840Z,3.03
2023-02-21T11:41:19.875Z,2.80
2023-02-21T11:44:23.708Z,2.55
2023-02-21T11:47:36.472Z,5.05
2023-02-21T11:50:49.192Z,2.20
2023-02-21T11:53:51.540Z,1.60
2023-02-21T11:56:59.064Z,2.47
2023-02-21T12:00:19.716Z,3.00
2023-02-21T12:04:02.656Z,3.50
2023-02-21T12:07:22.607Z,4.32
2023-02-21T12:10:51.668Z,2.83
2023-02-21T12:14:03.017Z,4.72
2023-02-21T12:17:24.864Z,2.60
2023-02-21T12:20:51.197Z,4.38
2023-02-21T12:24:30.852Z,3.20
2023-02-21T12:28:02.251Z,3.40
2023-02-21T12:31:15.913Z,2.45
2023-02-21T12:34:48.014Z,3.13
2023-02-21T12:38:04.698Z,3.00
2023-02-21T12:41:27.679Z,2.72
2023-02-21T12:44:39.677Z,1.88
2023-02-21T12:48:11.856Z,2.35
2023-02-21T12:51:18.973Z,2.65
2023-02-21T12:54:41.664Z,3.03
2023-02-21T12:58:05.049Z,4.37
2023-02-21T13:01:21.230Z,4.05
2023-02-21T13:04:46.869Z,1.92
2023-02-21T13:07:55.145Z,2.20
2023-02-21T13:11:13.628Z,4.32
2023-02-21T13:14:24.820Z,2.58
2023-02-21T13:17:27.686Z,4.55
2023-02-21T13:20:36.313Z,1.75
2023-02-21T13:23:58.990Z,2.58
2023-02-21T13:27:33.294Z,1.55
2023-02-21T13:30:41.738Z,2.83
2023-02-21T13:33:48.701Z,1.83
2023-02-21T13:36:51.844Z,2.45
2023-02-21T13:40:01.350Z,2.03
2023-02-21T13:43:16.446Z,2.17
2023-02-21T13:46:31.124Z,2.05
2023-02-21T13:49:55.646Z,2.33
2023-02-21T13:53:18.195Z,3.38
2023-02-21T13:56:20.667Z,2.95
2023-02-21T13:59:22.787Z,5.40
2023-02-21T14:02:32.878Z,2.87
2023-02-21T14:05:44.464Z,1.67
2023-02-21T14:08:50.586Z,2.70
2023-02-21T14:11:54.138Z,3.93
2023-02-21T14:15:06.798Z,1.90
2023-02-21T14:18:27.405Z,4.30
2023-02-21T14:21:45.792Z,3.35
2023-02-21T14:24:50.482Z,1.83
2023-02-21T14:27:55.200Z,2.15
2023-02-21T14:31:03.585Z,1.73
2023-02-21T14:34:08.330Z,2.27
2023-02-21T14:37:12.535Z,4.75
2023-02-21T14:40:14.655Z,3.10
2023-02-21T14:44:05.142Z,2.77
2023-02-21T14:47:17.103Z,1.60
2023-02-21T14:50:32.437Z,2.13
2023-02-21T14:53:58.181Z,1.30
2023-02-21T14:57:07.515Z,3.22
2023-02-21T15:00:18.996Z,1.83
2023-02-21T15:03:23.822Z,2.50
2023-02-21T15:06:26.722Z,1.43
2023-02-21T15:09:28.900Z,2.55
2023-02-21T15:12:31.197Z,2.50
2023-02-21T15:15:39.702Z,1.93
2023-02-21T15:18:57.880Z,1.27
2023-02-21T15:22:12.105Z,1.48
2023-02-21T15:25:16.760Z,4.97
2023-02-21T15:28:28.164Z,1.50
2023-02-21T15:31:37.230Z,2.38
2023-02-21T15:34:41.790Z,3.67
2023-02-21T15:37:45.358Z,1.63
2023-02-21T15:40:48.515Z,3.78
2023-02-21T15:44:12.479Z,1.83
2023-02-21T15:47:20.480Z,2.70
2023-02-21T15:50:28.596Z,1.20
2023-02-21T15:53:32.314Z,3.05
2023-02-21T15:56:34.547Z,1.48
2023-02-21T15:59:37.872Z,4.43
2023-02-21T16:02:40.071Z,1.35
2023-02-21T16:05:42.472Z,2.22
2023-02-21T16:08:52.880Z,3.23
2023-02-21T16:12:12.152Z,2.00
2023-02-21T16:15:35.609Z,2.67
2023-02-21T16:18:37.949Z,1.70
2023-02-21T16:21:40.114Z,1.45
2023-02-21T16:24:42.410Z,3.40
2023-02-21T16:27:47.783Z,2.05
2023-02-21T16:30:50.191Z,1.63
2023-02-21T16:33:52.484Z,3.20
2023-02-21T16:37:01.871Z,3.58
2023-02-21T16:40:12.779Z,1.63
2023-02-21T16:43:20.572Z,1.38
2023-02-21T16:46:29.979Z,3.22
2023-02-21T16:49:32.941Z,3.77
2023-02-21T16:52:35.509Z,3.50
2023-02-21T16:55:37.769Z,3.42
2023-02-21T16:58:49.925Z,3.22
2023-02-21T17:01:52.296Z,4.90
2023-02-21T17:04:54.483Z,3.50
2023-02-21T17:07:58.438Z,2.38
2023-02-21T17:11:00.708Z,2.13
2023-02-21T17:14:03.076Z,3.85
2023-02-21T17:17:05.236Z,2.78
2023-02-21T17:20:08.791Z,2.33
2023-02-21T17:23:10.939Z,2.97
2023-02-21T17:26:13.239Z,3.28
2023-02-21T17:29:15.492Z,2.88
2023-02-21T17:32:17.840Z,3.05
2023-02-21T17:35:22.443Z,4.18
2023-02-21T17:38:24.642Z,4.55
2023-02-21T17:41:27.626Z,2.90
2023-02-21T17:44:30.070Z,5.22
2023-02-21T17:47:32.880Z,3.17
2023-02-21T17:50:35.018Z,4.40
2023-02-21T17:53:37.182Z,4.18
2023-02-21T17:56:39.607Z,2.72
2023-02-21T17:59:41.738Z,2.00
2023-02-21T18:02:43.933Z,2.90
2023-02-21T18:05:46.111Z,3.28
2023-02-21T18:08:48.445Z,2.95
2023-02-21T18:11:51.942Z,2.90
2023-02-21T18:14:57.283Z,3.55
2023-02-21T18:18:06.778Z,2.85
2023-02-21T18:21:09.531Z,5.27
2023-02-21T18:24:14.170Z,2.45
2023-02-21T18:27:16.373Z,5.43
2023-02-21T18:30:19.203Z,3.20
2023-02-21T18:33:23.155Z,3.08
2023-02-21T18:36:26.411Z,3.17
2023-02-21T18:39:29.765Z,1.55
2023-02-21T18:42:31.954Z,7.07
2023-02-21T18:45:34.399Z,3.58
2023-02-21T18:48:37.067Z,6.28
2023-02-21T18:51:39.264Z,3.03
2023-02-21T18:54:49.567Z,3.42
2023-02-21T18:57:52.273Z,2.53
2023-02-21T19:00:54.481Z,4.38
2023-02-21T19:03:56.815Z,2.80
2023-02-21T19:06:58.994Z,3.45
2023-02-21T19:10:01.312Z,2.85
2023-02-21T19:13:05.231Z,2.87
2023-02-21T19:16:07.765Z,3.92
2023-02-21T19:19:09.978Z,2.55
2023-02-21T19:22:12.085Z,4.77
2023-02-21T19:25:16.307Z,3.67
2023-02-21T19:28:18.390Z,4.80
2023-02-21T19:31:20.959Z,2.90
2023-02-21T19:34:23.268Z,3.22
2023-02-21T19:37:25.420Z,2.88
2023-02-21T19:40:27.642Z,2.75
2023-02-21T19:43:29.787Z,3.07
2023-02-21T19:46:32.336Z,4.00
2023-02-21T19:49:34.563Z,2.35
2023-02-21T19:52:37.414Z,4.10
2023-02-21T19:55:39.667Z,2.28
2023-02-21T19:58:42.220Z,2.60
2023-02-21T20:01:45.287Z,2.47
2023-02-21T20:04:49.216Z,4.53
2023-02-21T20:07:51.354Z,3.55
2023-02-21T20:10:53.618Z,3.08
2023-02-21T20:13:55.842Z,2.80
2023-02-21T20:16:58.183Z,4.32
2023-02-21T20:20:00.354Z,4.63
2023-02-21T20:23:03.515Z,3.23
2023-02-21T20:26:11.067Z,3.95
2023-02-21T20:29:13.187Z,5.55
2023-02-21T20:32:18.375Z,3.92
2023-02-21T20:35:20.675Z,3.60
2023-02-21T20:38:23.247Z,4.93
2023-02-21T20:41:33.454Z,3.08
2023-02-21T20:44:37.996Z,4.03
2023-02-21T20:47:40.335Z,3.70
2023-02-21T20:50:42.839Z,4.95
2023-02-21T20:53:47.926Z,3.77
2023-02-21T20:56:53.676Z,3.53
2023-02-21T20:59:55.904Z,3.13
2023-02-21T21:02:59.159Z,5.47
2023-02-21T21:06:02.349Z,2.92
2023-02-21T21:09:04.626Z,3.40
2023-02-21T21:12:12.392Z,3.30
2023-02-21T21:15:14.702Z,2.93
2023-02-21T21:18:16.864Z,3.50
2023-02-21T21:21:19.129Z,3.33
2023-02-21T21:24:21.340Z,4.03
2023-02-21T21:27:23.657Z,5.13
2023-02-21T21:30:27.217Z,5.75
2023-02-21T21:33:29.561Z,6.60
2023-02-21T21:36:31.678Z,4.65
2023-02-21T21:39:35.445Z,4.63
2023-02-21T21:42:37.759Z,3.65
2023-02-21T21:45:44.338Z,3.20
2023-02-21T21:48:46.764Z,3.42
2023-02-21T21:51:49.389Z,4.88
2023-02-21T21:54:51.569Z,4.17
2023-02-21T21:57:54.727Z,4.68
2023-02-21T22:00:56.853Z,5.00
2023-02-21T22:03:59.054Z,3.83
2023-02-21T22:07:01.501Z,3.75
2023-02-21T22:10:03.768Z,4.30
2023-02-21T22:13:13.589Z,5.57
2023-02-21T22:16:15.791Z,3.70
2023-02-21T22:19:19.734Z,3.13
2023-02-21T22:22:22.096Z,3.28
2023-02-21T22:25:25.804Z,3.87
2023-02-21T22:28:28.066Z,2.85
2023-02-21T22:31:31.210Z,3.97
2023-02-21T22:34:33.589Z,3.78
2023-02-21T22:37:36.099Z,4.15
2023-02-21T22:40:38.213Z,4.45
2023-02-21T22:43:40.397Z,2.95
2023-02-21T22:46:49.016Z,3.83
2023-02-21T22:49:53.298Z,3.88
2023-02-21T22:52:57.815Z,2.47
2023-02-21T22:56:02.624Z,2.87
2023-02-21T22:59:08.789Z,4.55
2023-02-21T23:02:11.134Z,2.72
2023-02-21T23:05:21.653Z,3.15
2023-02-21T23:08:23.828Z,2.60
2023-02-21T23:11:26.054Z,4.57
2023-02-21T23:14:31.507Z,3.90
2023-02-21T23:17:33.817Z,2.90
2023-02-21T23:20:36.052Z,3.20
2023-02-21T23:23:38.251Z,4.10
2023-02-21T23:26:44.205Z,3.57
2023-02-21T23:29:47.766Z,3.97
2023-02-21T23:32:50.044Z,6.22
2023-02-21T23:35:53.577Z,2.85
2023-02-21T23:38:59.330Z,3.30
2023-02-21T23:42:01.488Z,3.50
2023-02-21T23:45:03.919Z,3.03
2023-02-21T23:48:15.674Z,3.10
2023-02-21T23:51:18.197Z,3.60
2023-02-21T23:54:21.199Z,3.38
2023-02-21T23:57:24.539Z,4.73
